Time;durP1;ratioP1;P1;durP2;ratioP2;P2;SDS_P1;SDS_P2;PMS_P1;PMS_P2;Temp;Humidity;BMP_temperature;BMP_pressure;BME280_temperature;BME280_humidity;BME280_pressure;Samples;Min_cycle;Max_cycle;Signal;HPM_P1;HPM_P2
2021/11/29 00:03:32;;;;;;;2.92;2.60;;;23.00;62.80;;;;;;31517616;28;20090;-57
2021/11/29 00:18:35;;;;;;;2.00;1.80;;;22.90;62.60;;;;;;31545895;28;20197;-48
2021/11/29 00:33:39;;;;;;;1.42;1.30;;;22.90;62.40;;;;;;31509135;28;20175;-46
2021/11/29 00:48:41;;;;;;;0.63;0.60;;;22.90;62.90;;;;;;31627654;28;20044;-41
2021/11/29 01:03:43;;;;;;;0.50;0.50;;;22.90;63.40;;;;;;31625331;28;20104;-51
2021/11/29 01:18:45;;;;;;;0.50;0.50;;;23.50;62.70;;;;;;31542489;28;20095;-57
2021/11/29 01:33:47;;;;;;;0.55;0.55;;;23.60;62.60;;;;;;31619488;28;20045;-57
2021/11/29 01:48:50;;;;;;;0.38;0.38;;;23.40;62.70;;;;;;31538933;28;20096;-47
2021/11/29 02:03:57;;;;;;;0.57;0.57;;;23.40;63.10;;;;;;31557512;28;20053;-45
2021/11/29 02:18:59;;;;;;;0.20;0.20;;;23.30;62.90;;;;;;31501625;28;20097;-45
2021/11/29 02:34:24;;;;;;;0.15;0.15;;;23.30;63.10;;;;;;31550541;28;20102;-43
2021/11/29 02:49:26;;;;;;;0.30;0.30;;;23.20;63.30;;;;;;31507251;28;20079;-41
2021/11/29 03:04:30;;;;;;;0.10;0.10;;;23.20;63.20;;;;;;31505912;28;20060;-41
2021/11/29 03:19:35;;;;;;;0.13;0.13;;;23.10;63.30;;;;;;31519093;28;20044;-47
2021/11/29 03:34:37;;;;;;;0.10;0.10;;;23.00;63.30;;;;;;31595608;28;20045;-48
2021/11/29 03:49:39;;;;;;;0.10;0.10;;;23.00;63.30;;;;;;31542899;28;20060;-45
2021/11/29 04:04:41;;;;;;;0.10;0.10;;;23.00;63.30;;;;;;31573555;28;20074;-57
2021/11/29 04:19:46;;;;;;;0.10;0.10;;;23.00;63.10;;;;;;31538664;28;20418;-47
2021/11/29 04:34:52;;;;;;;0.10;0.10;;;22.90;63.60;;;;;;31550044;28;20121;-57
2021/11/29 04:49:54;;;;;;;1.85;0.20;;;23.20;63.80;;;;;;31619615;28;20135;-47
2021/11/29 05:04:56;;;;;;;0.40;0.40;;;23.70;62.60;;;;;;31534102;28;20097;-53
2021/11/29 05:19:59;;;;;;;0.47;0.28;;;23.50;62.50;;;;;;31534555;28;20045;-45
2021/11/29 05:35:01;;;;;;;1.23;0.57;;;23.40;62.70;;;;;;31533720;28;20041;-44
2021/11/29 05:50:07;;;;;;;0.98;0.50;;;23.20;62.70;;;;;;31572647;28;20453;-44
2021/11/29 06:05:10;;;;;;;5.57;1.05;;;23.10;62.90;;;;;;31556313;28;20104;-48
2021/11/29 06:20:22;;;;;;;0.57;0.50;;;23.00;63.20;;;;;;31525040;28;20044;-42
2021/11/29 06:35:24;;;;;;;4.63;1.02;;;23.00;63.40;;;;;;31572328;28;20045;-45
2021/11/29 06:50:26;;;;;;;1.67;0.93;;;22.90;64.30;;;;;;31531587;28;20044;-58
2021/11/29 07:05:29;;;;;;;3.35;0.80;;;22.90;64.70;;;;;;31516320;28;20034;-51
2021/11/29 07:20:31;;;;;;;5.53;1.00;;;22.90;64.00;;;;;;31546677;28;20041;-59
2021/11/29 07:35:34;;;;;;;16.67;3.50;;;23.00;63.80;;;;;;31571570;28;20124;-45
2021/11/29 07:50:37;;;;;;;13.73;5.30;;;25.40;58.10;;;;;;31528107;28;20053;-59
2021/11/29 08:05:45;;;;;;;34.72;18.73;;;23.70;60.90;;;;;;31603269;28;20201;-48
2021/11/29 08:20:47;;;;;;;27.10;16.00;;;23.20;60.40;;;;;;31565412;28;20159;-44
2021/11/29 08:35:49;;;;;;;21.30;13.27;;;23.10;60.40;;;;;;31563468;28;20045;-44
2021/11/29 08:50:54;;;;;;;18.15;11.40;;;23.00;61.20;;;;;;31556013;28;20048;-45
2021/11/29 09:05:57;;;;;;;41.63;29.88;;;23.00;60.50;;;;;;31634157;28;20059;-47
2021/11/29 09:20:59;;;;;;;39.72;27.08;;;22.70;59.60;;;;;;31632519;28;20186;-49
2021/11/29 09:36:02;;;;;;;37.28;26.92;;;22.80;60.20;;;;;;31632150;28;20055;-46
2021/11/29 09:51:05;;;;;;;33.65;24.23;;;22.80;60.30;;;;;;31630125;28;20052;-43
2021/11/29 10:06:08;;;;;;;29.98;24.40;;;22.70;60.70;;;;;;31625104;28;20055;-49
2021/11/29 10:21:10;;;;;;;20.63;16.48;;;22.50;58.80;;;;;;31624164;28;20116;-44
2021/11/29 10:36:13;;;;;;;22.90;15.50;;;22.40;57.90;;;;;;31623695;28;20072;-46
2021/11/29 10:51:18;;;;;;;19.33;15.45;;;22.40;58.10;;;;;;31622182;28;20044;-48
2021/11/29 11:06:42;;;;;;;14.82;12.45;;;22.30;59.00;;;;;;31528939;28;20117;-48
2021/11/29 11:21:44;;;;;;;15.32;11.60;;;22.80;59.50;;;;;;31571360;28;20048;-54
2021/11/29 11:36:46;;;;;;;15.93;10.48;;;23.10;59.20;;;;;;31556090;28;20310;-48
2021/11/29 11:51:48;;;;;;;14.68;10.20;;;23.10;59.40;;;;;;31546511;28;20061;-45
2021/11/29 12:06:50;;;;;;;13.48;9.05;;;23.00;59.60;;;;;;31618929;28;20045;-53
2021/11/29 12:22:21;;;;;;;15.52;8.95;;;23.00;59.80;;;;;;31169375;28;10000146;-50
2021/11/29 12:37:26;;;;;;;10.88;8.18;;;22.90;60.20;;;;;;31497320;28;20305;-56
2021/11/29 12:52:38;;;;;;;11.68;7.90;;;22.90;60.10;;;;;;31494753;28;20076;-53
2021/11/29 13:08:18;;;;;;;17.33;7.97;;;22.90;60.60;;;;;;31496377;28;20041;-55
2021/11/29 13:23:20;;;;;;;11.18;7.43;;;22.80;60.90;;;;;;31491546;28;20047;-56
2021/11/29 13:38:25;;;;;;;15.38;7.50;;;22.90;61.00;;;;;;31474939;28;20040;-57
2021/11/29 13:53:33;;;;;;;10.82;6.20;;;23.30;60.70;;;;;;31503690;28;20104;-54
2021/11/29 14:08:57;;;;;;;9.87;6.60;;;23.20;60.90;;;;;;31503965;28;20563;-52
2021/11/29 14:24:04;;;;;;;7.47;6.22;;;23.10;60.70;;;;;;31490934;28;20132;-51
2021/11/29 14:39:09;;;;;;;8.32;5.75;;;23.00;61.20;;;;;;31495067;28;20095;-49
2021/11/29 14:54:13;;;;;;;8.10;6.57;;;23.00;60.80;;;;;;31518818;28;20057;-48
2021/11/29 15:09:20;;;;;;;10.02;5.90;;;22.90;61.00;;;;;;31518501;28;20067;-47
2021/11/29 15:24:31;;;;;;;12.38;5.78;;;23.00;60.80;;;;;;31516577;28;20048;-53
2021/11/29 15:39:33;;;;;;;11.50;5.80;;;23.20;60.60;;;;;;31512809;28;20065;-53
2021/11/29 15:54:35;;;;;;;14.43;6.43;;;23.20;60.70;;;;;;31512438;28;20104;-56
2021/11/29 16:09:37;;;;;;;17.35;5.80;;;23.70;61.60;;;;;;31494349;28;20091;-56
2021/11/29 16:24:39;;;;;;;13.45;5.80;;;23.60;62.30;;;;;;31538855;28;20063;-49
2021/11/29 16:39:41;;;;;;;9.70;5.30;;;23.30;62.20;;;;;;31638040;28;20100;-52
2021/11/29 16:54:43;;;;;;;12.07;5.55;;;23.20;61.80;;;;;;31623500;28;20068;-52
2021/11/29 17:09:45;;;;;;;11.18;4.75;;;23.00;63.60;;;;;;31583491;28;20068;-48
2021/11/29 17:24:51;;;;;;;7.43;5.05;;;23.00;63.50;;;;;;31150408;28;10000140;-57
2021/11/29 17:39:53;;;;;;;14.50;5.13;;;23.00;63.30;;;;;;31503632;28;20056;-50
2021/11/29 17:54:55;;;;;;;11.88;5.40;;;22.90;63.70;;;;;;31487576;28;20049;-60
2021/11/29 18:12:35;;;;;;;9.82;5.45;;;23.00;63.60;;;;;;31486482;28;20053;-59
2021/11/29 18:25:19;;;;;;;15.50;10.15;;;22.90;63.60;;;;;;31485275;28;20037;-51
2021/11/29 18:40:24;;;;;;;31.17;14.85;;;22.90;64.60;;;;;;31485183;28;20083;-58
2021/11/29 18:55:27;;;;;;;25.27;11.88;;;22.80;64.50;;;;;;31484164;28;20082;-54
2021/11/29 19:10:30;;;;;;;17.48;10.40;;;22.70;64.40;;;;;;31483155;28;20072;-54
2021/11/29 19:25:32;;;;;;;15.63;11.38;;;22.40;65.70;;;;;;31481483;28;20065;-50
2021/11/29 19:40:41;;;;;;;13.48;8.80;;;22.30;65.90;;;;;;31621103;28;20707;-59
2021/11/29 19:55:43;;;;;;;11.70;7.50;;;23.00;64.60;;;;;;31627834;28;20076;-57
2021/11/29 20:10:45;;;;;;;7.50;6.55;;;23.50;63.30;;;;;;31624993;28;20045;-56
2021/11/29 20:25:47;;;;;;;13.98;6.10;;;23.50;63.70;;;;;;31579583;28;20096;-58
2021/11/29 20:40:49;;;;;;;10.60;6.32;;;23.40;63.70;;;;;;31509767;28;20049;-51
2021/11/29 20:55:51;;;;;;;10.18;6.35;;;23.40;63.40;;;;;;31619439;28;20130;-49
2021/11/29 21:10:53;;;;;;;10.27;6.22;;;23.20;63.50;;;;;;31630864;28;20049;-42
2021/11/29 21:25:55;;;;;;;11.77;6.15;;;23.00;63.60;;;;;;31627002;28;20133;-55
2021/11/29 21:40:57;;;;;;;37.13;24.60;;;23.00;63.70;;;;;;31613310;28;20048;-47
2021/11/29 21:55:59;;;;;;;34.75;24.02;;;23.00;63.40;;;;;;31539572;28;20087;-46
2021/11/29 22:11:01;;;;;;;27.13;21.63;;;23.00;63.20;;;;;;31498238;28;20045;-43
2021/11/29 22:26:03;;;;;;;24.27;19.38;;;23.00;63.30;;;;;;31573299;28;20047;-46
2021/11/29 22:41:05;;;;;;;25.63;18.15;;;23.00;63.30;;;;;;31606730;28;20079;-46
2021/11/29 22:56:08;;;;;;;21.80;17.02;;;23.00;63.50;;;;;;31616836;28;20086;-53
2021/11/29 23:11:20;;;;;;;50.13;36.83;;;22.90;63.60;;;;;;31634554;28;20078;-47
2021/11/29 23:26:22;;;;;;;37.13;30.50;;;22.90;63.00;;;;;;31642058;28;20047;-47
2021/11/29 23:41:25;;;;;;;35.90;29.70;;;22.90;63.10;;;;;;31640292;28;20041;-48
2021/11/29 23:56:41;;;;;;;36.13;26.55;;;22.90;63.20;;;;;;31641507;28;20060;-47
